Zibo, China
Current Conditions -  °F | °C
As of 12:00 AM on Tuesday 25 Nov 2014 (Local Time) from ZSJN Reporting Station
Clear Clear  
Wind Chill: 34°   Ceiling: Unl
Heat Index: 34°   Visibility: 4mi
Dew Point: 32°   Wind: 2mph
Humidity: 93%   Direction: 60°ENE
Pressure: 30.27"   Gusts: NA
Location:  36.8°N, 118.1°E
Report Text: ZSJN 241600Z 06001MPS 6000 NSC 01/M00 Q1025 NOSIG
Loading
Personal Weather Stations






























Interactive Weather Map New forecast layout! Learn more

10-Day Weather Forecast

Advertisements
Track Severe Weather on mobile